Time;durP1;ratioP1;P1;durP2;ratioP2;P2;SDS_P1;SDS_P2;PMS_P1;PMS_P2;Temp;Humidity;BMP_temperature;BMP_pressure;BME280_temperature;BME280_humidity;BME280_pressure;Samples;Min_cycle;Max_cycle;Signal;HPM_P1;HPM_P2
2022/08/22 00:00:21;;;;;;;;;;;27.40;90.80;;;;;;5086977;28;20132;-55
2022/08/22 00:02:50;;;;;;;;;;;27.30;90.70;;;;;;5087188;28;19916;-56
2022/08/22 00:05:19;;;;;;;;;;;27.30;90.80;;;;;;5087065;28;20023;-52
2022/08/22 00:07:55;;;;;;;;;;;27.30;90.70;;;;;;5086941;28;19912;-52
2022/08/22 00:10:37;;;;;;;;;;;27.30;90.80;;;;;;5086633;28;19946;-58
2022/08/22 00:13:35;;;;;;;;;;;27.30;90.80;;;;;;5104333;28;19920;-56
2022/08/22 00:16:04;;;;;;;;;;;27.30;90.80;;;;;;5056254;28;19908;-54
2022/08/22 00:18:33;;;;;;;;;;;27.30;90.60;;;;;;5106873;28;19912;-54
2022/08/22 00:20:59;;;;;;;;;;;27.30;90.70;;;;;;5106885;28;20246;-54
2022/08/22 00:23:31;;;;;;;;;;;27.30;90.60;;;;;;5107167;28;19919;-53
2022/08/22 00:26:14;;;;;;;;;;;27.30;90.60;;;;;;5106840;28;19915;-54
2022/08/22 00:28:49;;;;;;;;;;;27.30;90.40;;;;;;5107135;28;19920;-59
2022/08/22 00:31:34;;;;;;;;;;;27.30;90.30;;;;;;5088772;28;19952;-55
2022/08/22 00:34:06;;;;;;;;;;;27.30;90.40;;;;;;5107096;28;19950;-59
2022/08/22 00:36:38;;;;;;;;;;;27.30;90.60;;;;;;5106706;28;19908;-57
2022/08/22 00:39:34;;;;;;;;;;;27.20;90.10;;;;;;5101446;28;20299;-51
2022/08/22 00:42:00;;;;;;;;;;;27.20;90.00;;;;;;5031960;28;19916;-54
2022/08/22 00:44:36;;;;;;;;;;;27.10;90.10;;;;;;5096098;28;19947;-52
2022/08/22 00:47:11;;;;;;;;;;;27.00;90.10;;;;;;5106166;28;20082;-52
2022/08/22 00:49:49;;;;;;;;;;;27.00;90.30;;;;;;5106584;28;19979;-52
2022/08/22 00:52:18;;;;;;;;;;;26.90;90.30;;;;;;5088080;28;19919;-54
2022/08/22 00:55:02;;;;;;;;;;;26.90;90.30;;;;;;5089559;28;19955;-51
2022/08/22 00:57:29;;;;;;;;;;;26.90;90.40;;;;;;5085819;28;20100;-53
2022/08/22 00:59:58;;;;;;;;;;;26.90;90.30;;;;;;5067923;28;20120;-47
2022/08/22 01:02:36;;;;;;;;;;;26.80;90.40;;;;;;5085700;28;19935;-51
2022/08/22 01:05:12;;;;;;;;;;;26.90;90.40;;;;;;5085802;28;19985;-51
2022/08/22 01:07:57;;;;;;;;;;;26.80;90.30;;;;;;5089335;28;19912;-52
2022/08/22 01:10:42;;;;;;;;;;;26.90;90.40;;;;;;5103089;28;19916;-53
2022/08/22 01:13:09;;;;;;;;;;;26.80;90.50;;;;;;5085333;28;19921;-48
2022/08/22 01:15:36;;;;;;;;;;;26.70;90.50;;;;;;5085209;28;19945;-50
2022/08/22 01:18:11;;;;;;;;;;;26.70;90.50;;;;;;5088386;28;19921;-53
2022/08/22 01:20:38;;;;;;;;;;;26.80;90.70;;;;;;5090215;28;19954;-52
2022/08/22 01:23:18;;;;;;;;;;;26.70;90.30;;;;;;5105358;28;19923;-53
2022/08/22 01:26:03;;;;;;;;;;;26.80;90.50;;;;;;5105819;28;20131;-53
2022/08/22 01:28:29;;;;;;;;;;;26.80;90.30;;;;;;5105726;28;19961;-55
2022/08/22 01:31:08;;;;;;;;;;;26.70;90.40;;;;;;5102625;28;20095;-54
2022/08/22 01:33:54;;;;;;;;;;;26.70;90.50;;;;;;5105853;28;19912;-50
2022/08/22 01:36:33;;;;;;;;;;;26.70;90.50;;;;;;5105455;28;19965;-54
2022/08/22 01:39:20;;;;;;;;;;;26.70;90.30;;;;;;5097444;28;19959;-53
2022/08/22 01:42:08;;;;;;;;;;;26.70;90.50;;;;;;5084836;28;20260;-52
2022/08/22 01:44:41;;;;;;;;;;;26.70;90.80;;;;;;5091178;28;19916;-53
2022/08/22 01:47:16;;;;;;;;;;;26.70;90.90;;;;;;5099089;28;20201;-49
2022/08/22 01:49:45;;;;;;;;;;;26.70;91.10;;;;;;5104400;28;19908;-57
2022/08/22 01:52:15;;;;;;;;;;;26.70;91.30;;;;;;5105097;28;19913;-48
2022/08/22 01:55:07;;;;;;;;;;;26.70;91.30;;;;;;5105178;28;19908;-51
2022/08/22 01:57:47;;;;;;;;;;;26.70;91.40;;;;;;5098630;28;20204;-51
2022/08/22 02:00:17;;;;;;;;;;;26.70;91.40;;;;;;5105013;28;20180;-51
2022/08/22 02:03:05;;;;;;;;;;;26.70;91.30;;;;;;5104781;28;19926;-49
2022/08/22 02:05:45;;;;;;;;;;;26.70;91.20;;;;;;5105098;28;19908;-50
2022/08/22 02:08:14;;;;;;;;;;;26.60;90.80;;;;;;5105369;28;20049;-49
2022/08/22 02:10:58;;;;;;;;;;;26.60;90.90;;;;;;5105086;28;19908;-48
2022/08/22 02:13:45;;;;;;;;;;;26.60;90.90;;;;;;5104753;28;20023;-46
2022/08/22 02:16:15;;;;;;;;;;;26.60;91.10;;;;;;5104553;28;19908;-54
2022/08/22 02:19:02;;;;;;;;;;;26.60;91.10;;;;;;5100473;28;19920;-54
2022/08/22 02:21:40;;;;;;;;;;;26.70;91.00;;;;;;5094953;28;19947;-53
2022/08/22 02:24:21;;;;;;;;;;;26.70;91.00;;;;;;5101434;28;19920;-56
2022/08/22 02:27:05;;;;;;;;;;;26.70;91.00;;;;;;5096247;28;19953;-53
2022/08/22 02:29:42;;;;;;;;;;;26.70;91.00;;;;;;5098288;28;20022;-54
2022/08/22 02:32:17;;;;;;;;;;;26.70;90.80;;;;;;5098956;28;19935;-54
2022/08/22 02:34:52;;;;;;;;;;;26.70;90.90;;;;;;5102137;28;19915;-54
2022/08/22 02:37:33;;;;;;;;;;;26.70;91.10;;;;;;5102972;28;19912;-56
2022/08/22 02:40:04;;;;;;;;;;;26.80;91.00;;;;;;5080202;28;20184;-58
2022/08/22 02:42:49;;;;;;;;;;;26.70;90.80;;;;;;5083892;28;19942;-55
2022/08/22 02:45:25;;;;;;;;;;;26.70;90.90;;;;;;5084241;28;19909;-55
2022/08/22 02:47:59;;;;;;;;;;;26.70;91.00;;;;;;5084826;28;19913;-52
2022/08/22 02:50:35;;;;;;;;;;;26.80;91.20;;;;;;5084231;28;20139;-57
2022/08/22 02:53:04;;;;;;;;;;;26.80;91.30;;;;;;5084209;28;19912;-54
2022/08/22 02:55:49;;;;;;;;;;;26.70;91.30;;;;;;5084160;28;19946;-55
2022/08/22 02:58:15;;;;;;;;;;;26.70;91.30;;;;;;5084034;28;19912;-54
2022/08/22 03:01:08;;;;;;;;;;;26.70;91.30;;;;;;5084098;28;19994;-55
2022/08/22 03:03:38;;;;;;;;;;;26.70;91.30;;;;;;5083327;28;20252;-55
2022/08/22 03:06:06;;;;;;;;;;;26.70;91.40;;;;;;5084114;28;20132;-50
2022/08/22 03:08:34;;;;;;;;;;;26.70;91.40;;;;;;5084530;28;19917;-52
2022/08/22 03:11:05;;;;;;;;;;;26.70;91.40;;;;;;5083731;28;20207;-53
2022/08/22 03:13:45;;;;;;;;;;;26.70;91.40;;;;;;5084075;28;20206;-53
2022/08/22 03:16:32;;;;;;;;;;;26.70;91.30;;;;;;5083772;28;19916;-56
2022/08/22 03:19:01;;;;;;;;;;;26.70;91.40;;;;;;5084441;28;19912;-54
2022/08/22 03:21:31;;;;;;;;;;;26.70;91.40;;;;;;5083980;28;20023;-54
2022/08/22 03:24:02;;;;;;;;;;;26.70;91.30;;;;;;5084389;28;19923;-54
2022/08/22 03:26:43;;;;;;;;;;;26.70;91.40;;;;;;5083781;28;19935;-56
2022/08/22 03:29:17;;;;;;;;;;;26.70;91.50;;;;;;5084484;28;19913;-55
2022/08/22 03:32:18;;;;;;;;;;;26.70;91.40;;;;;;5083971;28;19947;-53
2022/08/22 03:34:53;;;;;;;;;;;26.60;91.30;;;;;;5072459;28;19951;-53
2022/08/22 03:37:42;;;;;;;;;;;26.70;91.30;;;;;;5085748;28;19936;-52
2022/08/22 03:40:21;;;;;;;;;;;26.70;91.40;;;;;;5083313;28;19916;-53
2022/08/22 03:43:01;;;;;;;;;;;26.60;91.40;;;;;;5094479;28;20236;-53
2022/08/22 03:45:27;;;;;;;;;;;26.60;91.30;;;;;;5084729;28;19908;-53
2022/08/22 03:48:01;;;;;;;;;;;26.60;91.40;;;;;;5087081;28;19912;-56
2022/08/22 03:50:45;;;;;;;;;;;26.60;91.40;;;;;;5088780;28;19908;-52
2022/08/22 03:53:30;;;;;;;;;;;26.60;91.60;;;;;;5101703;28;20181;-52
2022/08/22 03:56:08;;;;;;;;;;;26.60;91.90;;;;;;5101229;28;19908;-53
2022/08/22 03:58:53;;;;;;;;;;;26.60;91.80;;;;;;5089262;28;19913;-53
2022/08/22 04:01:22;;;;;;;;;;;26.60;91.90;;;;;;5097846;28;19908;-52
2022/08/22 04:04:07;;;;;;;;;;;26.60;91.90;;;;;;5107619;28;19947;-52
2022/08/22 04:06:42;;;;;;;;;;;26.60;91.90;;;;;;5107336;28;19908;-52
2022/08/22 04:09:17;;;;;;;;;;;26.60;91.80;;;;;;5087706;28;19912;-55
2022/08/22 04:11:50;;;;;;;;;;;26.60;91.80;;;;;;5086337;28;19916;-54
2022/08/22 04:14:23;;;;;;;;;;;26.60;91.80;;;;;;5086813;28;19947;-56
2022/08/22 04:16:58;;;;;;;;;;;26.60;91.80;;;;;;5086654;28;20254;-53
2022/08/22 04:19:30;;;;;;;;;;;26.60;91.90;;;;;;5086726;28;20196;-53
2022/08/22 04:22:15;;;;;;;;;;;26.60;91.90;;;;;;5092993;28;20212;-59
2022/08/22 04:24:52;;;;;;;;;;;26.60;91.90;;;;;;5101095;28;20188;-60
2022/08/22 04:27:39;;;;;;;;;;;26.50;91.90;;;;;;5106650;28;19919;-56
2022/08/22 04:30:08;;;;;;;;;;;26.50;92.10;;;;;;5099824;28;19908;-56
2022/08/22 04:32:44;;;;;;;;;;;26.60;91.90;;;;;;5102277;28;19972;-55
2022/08/22 04:35:19;;;;;;;;;;;26.60;91.90;;;;;;5086560;28;20127;-53
2022/08/22 04:37:51;;;;;;;;;;;26.50;91.90;;;;;;5101076;28;19912;-55
2022/08/22 04:40:44;;;;;;;;;;;26.50;91.80;;;;;;5106822;28;19951;-56
2022/08/22 04:43:23;;;;;;;;;;;26.50;91.70;;;;;;5102960;28;19962;-54
2022/08/22 04:46:18;;;;;;;;;;;26.50;91.80;;;;;;5106450;28;20392;-49
2022/08/22 04:48:49;;;;;;;;;;;26.50;91.90;;;;;;5078627;28;19908;-54
2022/08/22 04:51:36;;;;;;;;;;;26.50;92.00;;;;;;5086026;28;19943;-49
2022/08/22 04:54:21;;;;;;;;;;;26.50;92.00;;;;;;5086456;28;19908;-57
2022/08/22 04:56:58;;;;;;;;;;;26.50;92.10;;;;;;5084881;28;19905;-56
2022/08/22 04:59:25;;;;;;;;;;;26.50;92.20;;;;;;5085917;28;19930;-54
2022/08/22 05:01:59;;;;;;;;;;;26.50;92.20;;;;;;5085560;28;19904;-59
2022/08/22 05:04:45;;;;;;;;;;;26.50;92.20;;;;;;5085781;28;20172;-54
2022/08/22 05:07:17;;;;;;;;;;;26.50;92.30;;;;;;5093776;28;20188;-55
2022/08/22 05:09:55;;;;;;;;;;;26.50;92.30;;;;;;5106018;28;19903;-54
2022/08/22 05:12:24;;;;;;;;;;;26.50;92.20;;;;;;5105254;28;19920;-56
2022/08/22 05:14:54;;;;;;;;;;;26.50;92.20;;;;;;5105232;28;20092;-54
2022/08/22 05:17:22;;;;;;;;;;;26.50;92.20;;;;;;5094159;28;19975;-59
2022/08/22 05:19:50;;;;;;;;;;;26.50;92.20;;;;;;5085677;28;19977;-53
2022/08/22 05:22:20;;;;;;;;;;;26.40;92.20;;;;;;5085454;28;20084;-52
2022/08/22 05:24:48;;;;;;;;;;;26.40;92.30;;;;;;5085370;28;19908;-55
2022/08/22 05:27:37;;;;;;;;;;;26.50;92.30;;;;;;5085716;28;19909;-53
2022/08/22 05:30:15;;;;;;;;;;;26.50;92.30;;;;;;5056949;28;20002;-52
2022/08/22 05:32:53;;;;;;;;;;;26.50;92.30;;;;;;5085318;28;19950;-54
2022/08/22 05:35:25;;;;;;;;;;;26.40;92.30;;;;;;5085162;28;20189;-52
2022/08/22 05:37:53;;;;;;;;;;;26.50;92.40;;;;;;5085455;28;20131;-52
2022/08/22 05:40:23;;;;;;;;;;;26.40;92.60;;;;;;5085133;28;20096;-55
2022/08/22 05:42:50;;;;;;;;;;;26.40;92.30;;;;;;5085257;28;19919;-52
2022/08/22 05:45:17;;;;;;;;;;;26.40;92.30;;;;;;5085160;28;19967;-52
2022/08/22 05:48:12;;;;;;;;;;;26.40;92.30;;;;;;5085041;28;19923;-54
2022/08/22 05:50:44;;;;;;;;;;;26.40;92.30;;;;;;5079687;28;19911;-54
2022/08/22 05:53:13;;;;;;;;;;;26.40;92.40;;;;;;5103793;28;19954;-56
2022/08/22 05:55:40;;;;;;;;;;;26.40;92.40;;;;;;5085038;28;19904;-54
2022/08/22 05:58:19;;;;;;;;;;;26.40;92.40;;;;;;5085198;28;20127;-57
2022/08/22 06:00:46;;;;;;;;;;;26.40;92.40;;;;;;5084861;28;19908;-53
2022/08/22 06:03:13;;;;;;;;;;;26.40;92.40;;;;;;5093186;28;20154;-55
2022/08/22 06:05:40;;;;;;;;;;;26.40;92.40;;;;;;5104926;28;19907;-56
2022/08/22 06:08:10;;;;;;;;;;;26.30;92.40;;;;;;5105154;28;19908;-56
2022/08/22 06:10:42;;;;;;;;;;;26.40;92.40;;;;;;5104960;28;20184;-57
2022/08/22 06:13:28;;;;;;;;;;;26.40;92.50;;;;;;5105147;28;20099;-53
2022/08/22 06:15:54;;;;;;;;;;;26.30;92.50;;;;;;5104894;28;19972;-53
2022/08/22 06:18:23;;;;;;;;;;;26.40;92.70;;;;;;5105094;28;20123;-54
2022/08/22 06:20:57;;;;;;;;;;;26.30;92.80;;;;;;5104751;28;19911;-52
2022/08/22 06:23:26;;;;;;;;;;;26.30;92.80;;;;;;5105266;28;20175;-53
2022/08/22 06:25:53;;;;;;;;;;;26.30;92.90;;;;;;5104564;28;19911;-55
2022/08/22 06:28:24;;;;;;;;;;;26.30;92.90;;;;;;5105104;28;19912;-53
2022/08/22 06:30:52;;;;;;;;;;;26.30;92.90;;;;;;5104945;28;20219;-56
2022/08/22 06:33:25;;;;;;;;;;;26.30;93.00;;;;;;5104980;28;20122;-56
2022/08/22 06:38:53;;;;;;;;;;;26.30;93.00;;;;;;5105238;28;19915;-55
2022/08/22 06:41:21;;;;;;;;;;;26.30;93.00;;;;;;5104633;28;19970;-56
2022/08/22 06:43:49;;;;;;;;;;;26.30;93.10;;;;;;5104738;28;19918;-55
2022/08/22 06:46:15;;;;;;;;;;;26.30;93.20;;;;;;5104496;28;19904;-60
2022/08/22 06:48:43;;;;;;;;;;;26.30;93.20;;;;;;5104825;28;19938;-53
2022/08/22 06:51:10;;;;;;;;;;;26.30;93.20;;;;;;5104493;28;19910;-54
2022/08/22 06:53:40;;;;;;;;;;;26.30;93.20;;;;;;5104788;28;19908;-56
2022/08/22 06:56:06;;;;;;;;;;;26.30;93.20;;;;;;5104818;28;19950;-55
2022/08/22 06:58:36;;;;;;;;;;;26.30;93.10;;;;;;5105005;28;19947;-58
2022/08/22 07:01:08;;;;;;;;;;;26.30;93.10;;;;;;5104359;28;20101;-59
2022/08/22 07:03:39;;;;;;;;;;;26.30;93.10;;;;;;5104045;28;19958;-61
2022/08/22 07:06:05;;;;;;;;;;;26.30;93.00;;;;;;5104293;28;19904;-61
2022/08/22 07:08:32;;;;;;;;;;;26.30;93.10;;;;;;5104696;28;20089;-61
2022/08/22 07:10:58;;;;;;;;;;;26.20;93.10;;;;;;5104331;28;19904;-53
2022/08/22 07:13:27;;;;;;;;;;;26.20;93.10;;;;;;5104425;28;20091;-56
2022/08/22 07:15:54;;;;;;;;;;;26.30;93.10;;;;;;5104160;28;19900;-54
2022/08/22 07:18:23;;;;;;;;;;;26.30;93.10;;;;;;5104359;28;19908;-52
2022/08/22 07:20:52;;;;;;;;;;;26.20;93.10;;;;;;5105886;28;19904;-61
2022/08/22 07:23:23;;;;;;;;;;;26.20;93.10;;;;;;5108680;28;20141;-53
2022/08/22 07:25:53;;;;;;;;;;;26.30;93.10;;;;;;5108017;28;19911;-58
2022/08/22 07:28:19;;;;;;;;;;;26.30;93.10;;;;;;5108594;28;19908;-54
2022/08/22 07:30:53;;;;;;;;;;;26.20;93.10;;;;;;5107869;28;19927;-55
2022/08/22 07:33:31;;;;;;;;;;;26.20;93.10;;;;;;5108238;28;19915;-53
2022/08/22 07:36:05;;;;;;;;;;;26.20;93.10;;;;;;5107916;28;19949;-55
2022/08/22 07:38:42;;;;;;;;;;;26.20;93.10;;;;;;5108433;28;19919;-54
2022/08/22 07:41:19;;;;;;;;;;;26.20;93.10;;;;;;5108007;28;19907;-53
2022/08/22 07:43:48;;;;;;;;;;;26.30;93.20;;;;;;5108081;28;20179;-54
2022/08/22 07:46:26;;;;;;;;;;;26.20;93.20;;;;;;5107769;28;20195;-53
2022/08/22 07:48:55;;;;;;;;;;;26.20;93.20;;;;;;5107433;28;19915;-55
2022/08/22 07:51:27;;;;;;;;;;;26.20;93.20;;;;;;5107619;28;19904;-53
2022/08/22 07:53:57;;;;;;;;;;;26.20;93.20;;;;;;5108055;28;19929;-54
2022/08/22 07:56:25;;;;;;;;;;;26.20;93.20;;;;;;5107733;28;19908;-51
2022/08/22 07:58:54;;;;;;;;;;;26.20;93.30;;;;;;5107915;28;19908;-58
2022/08/22 08:01:22;;;;;;;;;;;26.20;93.30;;;;;;5107278;28;20259;-51
2022/08/22 08:04:08;;;;;;;;;;;26.20;93.20;;;;;;5107890;28;19926;-53
2022/08/22 08:06:34;;;;;;;;;;;26.20;93.20;;;;;;5107214;28;20134;-53
2022/08/22 08:09:01;;;;;;;;;;;26.20;93.20;;;;;;5107741;28;19908;-53
2022/08/22 08:11:31;;;;;;;;;;;26.20;93.20;;;;;;5107001;28;19915;-54
2022/08/22 08:14:00;;;;;;;;;;;26.20;93.20;;;;;;5107550;28;19908;-54
2022/08/22 08:16:29;;;;;;;;;;;26.20;93.30;;;;;;5107498;28;19947;-53
2022/08/22 08:18:57;;;;;;;;;;;26.20;93.30;;;;;;5107486;28;19908;-55
2022/08/22 08:21:29;;;;;;;;;;;26.20;93.30;;;;;;5106980;28;19910;-60
2022/08/22 08:23:55;;;;;;;;;;;26.20;93.40;;;;;;5107481;28;19908;-48
2022/08/22 08:26:30;;;;;;;;;;;26.20;93.50;;;;;;5107065;28;20184;-53
2022/08/22 08:28:57;;;;;;;;;;;26.10;93.50;;;;;;5107147;28;19908;-54
2022/08/22 08:31:27;;;;;;;;;;;26.10;93.40;;;;;;5106707;28;19904;-55
2022/08/22 08:34:02;;;;;;;;;;;26.10;93.40;;;;;;5106642;28;19939;-53
2022/08/22 08:36:33;;;;;;;;;;;26.10;93.30;;;;;;5106934;28;19941;-60
2022/08/22 08:39:13;;;;;;;;;;;26.10;93.30;;;;;;5107153;28;19908;-53
2022/08/22 08:41:45;;;;;;;;;;;26.10;93.40;;;;;;5106426;28;19984;-53
2022/08/22 08:44:34;;;;;;;;;;;26.10;93.50;;;;;;5107114;28;19986;-55
2022/08/22 08:47:10;;;;;;;;;;;26.10;93.40;;;;;;5106629;28;19946;-56
2022/08/22 08:49:36;;;;;;;;;;;26.10;93.40;;;;;;5106633;28;19904;-55
2022/08/22 08:52:21;;;;;;;;;;;26.10;93.30;;;;;;5106358;28;20128;-54
2022/08/22 08:54:54;;;;;;;;;;;26.10;93.30;;;;;;5106548;28;19904;-54
2022/08/22 08:57:38;;;;;;;;;;;26.10;93.30;;;;;;5106520;28;19979;-55
2022/08/22 09:00:13;;;;;;;;;;;26.10;93.30;;;;;;5106479;28;19962;-53
2022/08/22 09:02:45;;;;;;;;;;;26.10;93.30;;;;;;5106089;28;20188;-54
2022/08/22 09:05:29;;;;;;;;;;;26.10;93.20;;;;;;5106159;28;19907;-60
2022/08/22 09:08:14;;;;;;;;;;;26.10;93.20;;;;;;5106253;28;19910;-54
2022/08/22 09:10:58;;;;;;;;;;;26.10;93.20;;;;;;5106073;28;19903;-56
2022/08/22 09:13:40;;;;;;;;;;;26.10;93.20;;;;;;5106145;28;20242;-55
2022/08/22 09:16:26;;;;;;;;;;;26.10;93.20;;;;;;5105805;28;20135;-58
2022/08/22 09:18:52;;;;;;;;;;;26.10;93.30;;;;;;5106287;28;20078;-56
2022/08/22 09:21:21;;;;;;;;;;;26.10;93.30;;;;;;5105900;28;19910;-58
2022/08/22 09:23:51;;;;;;;;;;;26.10;93.30;;;;;;5106446;28;19916;-58
2022/08/22 09:26:23;;;;;;;;;;;26.10;93.30;;;;;;5105893;28;19904;-53
2022/08/22 09:28:56;;;;;;;;;;;26.10;93.40;;;;;;5106066;28;20122;-53
2022/08/22 09:31:22;;;;;;;;;;;26.10;93.30;;;;;;5105624;28;20129;-56
2022/08/22 09:33:54;;;;;;;;;;;26.10;93.30;;;;;;5105648;28;19975;-55
2022/08/22 09:36:26;;;;;;;;;;;26.00;93.40;;;;;;5105640;28;19904;-54
2022/08/22 09:38:58;;;;;;;;;;;26.00;93.50;;;;;;5106165;28;19908;-57
2022/08/22 09:41:33;;;;;;;;;;;26.10;93.50;;;;;;5105902;28;19919;-56
2022/08/22 09:44:00;;;;;;;;;;;26.00;93.40;;;;;;5105393;28;19912;-61
2022/08/22 09:46:27;;;;;;;;;;;26.10;93.50;;;;;;5105628;28;20246;-55
2022/08/22 09:48:56;;;;;;;;;;;26.00;93.40;;;;;;5105739;28;20005;-53
2022/08/22 09:51:45;;;;;;;;;;;26.00;93.40;;;;;;5105542;28;19907;-54
2022/08/22 09:54:17;;;;;;;;;;;26.00;93.40;;;;;;5067335;28;19908;-56
2022/08/22 09:56:59;;;;;;;;;;;26.00;93.50;;;;;;5105107;28;19946;-58
2022/08/22 09:59:37;;;;;;;;;;;26.00;93.80;;;;;;5105198;28;19908;-55
2022/08/22 10:02:06;;;;;;;;;;;26.00;93.50;;;;;;5104959;28;20099;-54
2022/08/22 10:04:39;;;;;;;;;;;26.00;93.60;;;;;;5104794;28;19908;-56
2022/08/22 10:07:20;;;;;;;;;;;26.00;93.70;;;;;;5104903;28;19927;-57
2022/08/22 10:10:12;;;;;;;;;;;26.00;93.60;;;;;;5104835;28;19904;-57
2022/08/22 10:12:48;;;;;;;;;;;26.00;93.60;;;;;;5101291;28;19957;-59
2022/08/22 10:15:20;;;;;;;;;;;26.00;93.70;;;;;;5104842;28;19966;-58
2022/08/22 10:18:15;;;;;;;;;;;26.00;93.70;;;;;;5105073;28;19982;-61
2022/08/22 10:20:50;;;;;;;;;;;26.00;93.70;;;;;;5087406;28;19904;-55
2022/08/22 10:23:20;;;;;;;;;;;26.00;93.80;;;;;;5105105;28;19911;-53
2022/08/22 10:25:48;;;;;;;;;;;26.00;93.80;;;;;;5104535;28;19904;-53
2022/08/22 10:28:26;;;;;;;;;;;26.00;93.90;;;;;;5104953;28;20084;-56
2022/08/22 10:30:53;;;;;;;;;;;26.00;93.90;;;;;;5104612;28;19943;-55
2022/08/22 10:33:26;;;;;;;;;;;25.90;93.90;;;;;;5105206;28;19908;-55
2022/08/22 10:35:52;;;;;;;;;;;26.00;93.90;;;;;;5104698;28;19927;-56
2022/08/22 10:38:23;;;;;;;;;;;26.00;93.90;;;;;;5104673;28;20176;-53
2022/08/22 10:41:04;;;;;;;;;;;26.00;94.00;;;;;;5104777;28;19975;-55
2022/08/22 10:43:39;;;;;;;;;;;26.00;94.00;;;;;;5104537;28;19971;-54
2022/08/22 10:46:09;;;;;;;;;;;25.90;94.00;;;;;;5104519;28;19972;-58
2022/08/22 10:48:50;;;;;;;;;;;25.90;94.00;;;;;;5104736;28;19908;-54
2022/08/22 10:51:19;;;;;;;;;;;26.00;94.10;;;;;;5104651;28;19904;-54
2022/08/22 10:53:51;;;;;;;;;;;25.90;94.10;;;;;;5104884;28;19943;-55
2022/08/22 10:56:31;;;;;;;;;;;25.90;94.10;;;;;;5106890;28;19971;-55
2022/08/22 10:59:02;;;;;;;;;;;25.90;94.10;;;;;;5109040;28;19915;-54
2022/08/22 11:01:32;;;;;;;;;;;25.90;94.10;;;;;;5108380;28;19949;-55
2022/08/22 11:04:20;;;;;;;;;;;25.90;94.20;;;;;;5108346;28;19916;-55
2022/08/22 11:07:02;;;;;;;;;;;25.90;94.30;;;;;;5108391;28;20092;-56
2022/08/22 11:09:38;;;;;;;;;;;25.90;94.30;;;;;;5108523;28;20227;-53
2022/08/22 11:12:14;;;;;;;;;;;25.90;94.30;;;;;;5108111;28;20188;-54
2022/08/22 11:14:55;;;;;;;;;;;25.90;94.40;;;;;;5108408;28;19903;-55
2022/08/22 11:17:27;;;;;;;;;;;25.90;94.40;;;;;;5108326;28;19936;-54
2022/08/22 11:20:17;;;;;;;;;;;25.90;94.30;;;;;;5108324;28;19926;-55
2022/08/22 11:22:43;;;;;;;;;;;25.90;94.40;;;;;;5108213;28;20307;-55
2022/08/22 11:25:10;;;;;;;;;;;25.90;94.50;;;;;;5108345;28;19904;-55
2022/08/22 11:27:42;;;;;;;;;;;25.90;94.40;;;;;;5108130;28;19911;-53
2022/08/22 11:30:11;;;;;;;;;;;25.90;94.40;;;;;;5108006;28;19945;-54
2022/08/22 11:33:03;;;;;;;;;;;25.90;94.40;;;;;;5107205;28;19931;-53
2022/08/22 11:35:34;;;;;;;;;;;25.90;94.40;;;;;;5106170;28;20159;-52
2022/08/22 11:38:00;;;;;;;;;;;25.90;94.30;;;;;;5106675;28;19908;-57
2022/08/22 11:40:40;;;;;;;;;;;25.90;94.30;;;;;;5106300;28;20009;-57
2022/08/22 11:43:25;;;;;;;;;;;25.90;94.30;;;;;;5106450;28;19919;-49
2022/08/22 11:45:52;;;;;;;;;;;25.90;94.30;;;;;;5106120;28;19904;-55
2022/08/22 11:48:18;;;;;;;;;;;25.90;94.30;;;;;;5107878;28;19948;-56
2022/08/22 11:50:48;;;;;;;;;;;25.90;94.30;;;;;;5107779;28;19911;-60
2022/08/22 11:53:19;;;;;;;;;;;25.90;94.30;;;;;;5107999;28;19971;-54
2022/08/22 11:56:02;;;;;;;;;;;25.90;94.20;;;;;;5107808;28;19908;-54
2022/08/22 11:58:41;;;;;;;;;;;25.90;94.20;;;;;;5107931;28;19939;-53
2022/08/22 12:01:13;;;;;;;;;;;25.90;94.20;;;;;;5107476;28;19991;-53
2022/08/22 12:03:42;;;;;;;;;;;25.90;94.20;;;;;;5107542;28;19908;-51
2022/08/22 12:06:26;;;;;;;;;;;25.90;94.20;;;;;;5107187;28;19927;-53
2022/08/22 12:09:07;;;;;;;;;;;25.90;94.20;;;;;;5107845;28;19912;-50
2022/08/22 12:11:52;;;;;;;;;;;25.90;94.20;;;;;;5106957;28;19908;-56
2022/08/22 12:14:24;;;;;;;;;;;25.90;94.20;;;;;;5107447;28;19977;-51
2022/08/22 12:16:56;;;;;;;;;;;25.90;94.20;;;;;;5107206;28;19946;-52
2022/08/22 12:19:34;;;;;;;;;;;26.00;94.50;;;;;;5107236;28;19910;-55
2022/08/22 12:22:03;;;;;;;;;;;26.00;94.10;;;;;;5107423;28;19947;-56
2022/08/22 12:24:32;;;;;;;;;;;25.90;94.10;;;;;;5106950;28;19912;-52
2022/08/22 12:27:16;;;;;;;;;;;26.00;94.10;;;;;;5107064;28;19971;-54
2022/08/22 12:30:01;;;;;;;;;;;26.00;94.20;;;;;;5107108;28;20073;-55
2022/08/22 12:32:39;;;;;;;;;;;26.00;94.20;;;;;;5106839;28;19935;-58
2022/08/22 12:35:05;;;;;;;;;;;26.00;94.10;;;;;;5106897;28;19908;-54
2022/08/22 12:37:43;;;;;;;;;;;26.00;94.20;;;;;;5107041;28;19904;-55
2022/08/22 12:40:09;;;;;;;;;;;26.00;94.10;;;;;;5107007;28;19908;-55
2022/08/22 12:42:48;;;;;;;;;;;26.00;94.10;;;;;;5106695;28;19911;-55
2022/08/22 12:45:32;;;;;;;;;;;26.10;94.40;;;;;;5106757;28;19940;-54
2022/08/22 12:48:07;;;;;;;;;;;26.10;94.10;;;;;;5106830;28;19911;-53
2022/08/22 12:50:41;;;;;;;;;;;26.10;94.00;;;;;;5106874;28;19975;-57
2022/08/22 12:53:25;;;;;;;;;;;26.10;93.90;;;;;;5106341;28;19908;-54
2022/08/22 12:56:15;;;;;;;;;;;26.10;93.90;;;;;;5106980;28;19915;-54
2022/08/22 12:58:41;;;;;;;;;;;26.10;93.80;;;;;;5095889;28;19941;-56
2022/08/22 13:01:08;;;;;;;;;;;26.20;93.80;;;;;;5106808;28;19916;-60
2022/08/22 13:03:35;;;;;;;;;;;26.20;93.80;;;;;;5088028;28;20096;-52
2022/08/22 13:06:03;;;;;;;;;;;26.20;93.70;;;;;;5105932;28;19904;-54
2022/08/22 13:08:33;;;;;;;;;;;26.30;93.70;;;;;;5106177;28;19912;-56
2022/08/22 13:11:01;;;;;;;;;;;26.30;93.60;;;;;;5106576;28;19915;-53
2022/08/22 13:13:38;;;;;;;;;;;26.30;93.60;;;;;;5104013;28;19918;-54
2022/08/22 13:16:06;;;;;;;;;;;26.30;93.60;;;;;;5106457;28;19916;-56
2022/08/22 13:18:46;;;;;;;;;;;26.40;93.60;;;;;;5105371;28;20026;-56
2022/08/22 13:21:15;;;;;;;;;;;26.30;93.40;;;;;;5105946;28;19908;-54
2022/08/22 13:23:43;;;;;;;;;;;26.40;93.40;;;;;;5105877;28;20009;-54
2022/08/22 13:26:14;;;;;;;;;;;26.40;93.40;;;;;;5106363;28;19915;-55
2022/08/22 13:28:50;;;;;;;;;;;26.40;93.40;;;;;;5105844;28;19904;-54
2022/08/22 13:31:19;;;;;;;;;;;26.40;93.40;;;;;;5105707;28;20095;-56
2022/08/22 13:33:46;;;;;;;;;;;26.40;93.30;;;;;;5105738;28;19904;-53
2022/08/22 13:36:20;;;;;;;;;;;26.40;93.20;;;;;;5105566;28;19908;-53
2022/08/22 13:38:58;;;;;;;;;;;26.40;93.30;;;;;;5105600;28;19903;-51
2022/08/22 13:41:30;;;;;;;;;;;26.40;93.30;;;;;;5105368;28;19954;-52
2022/08/22 13:44:11;;;;;;;;;;;26.40;93.30;;;;;;5105293;28;19949;-55
2022/08/22 13:46:37;;;;;;;;;;;26.40;93.30;;;;;;5105474;28;20096;-53
2022/08/22 13:49:09;;;;;;;;;;;26.40;93.20;;;;;;5105432;28;19987;-53
2022/08/22 13:51:51;;;;;;;;;;;26.40;93.20;;;;;;5105339;28;20096;-52
2022/08/22 13:54:20;;;;;;;;;;;26.40;93.30;;;;;;5105221;28;19908;-56
2022/08/22 13:56:53;;;;;;;;;;;26.40;93.30;;;;;;5105376;28;19974;-58
2022/08/22 13:59:31;;;;;;;;;;;26.40;93.20;;;;;;5105175;28;19908;-57
2022/08/22 14:02:08;;;;;;;;;;;26.40;93.30;;;;;;5105073;28;19953;-56
2022/08/22 14:04:36;;;;;;;;;;;26.40;93.30;;;;;;5104970;28;19990;-59
2022/08/22 14:07:02;;;;;;;;;;;26.40;93.40;;;;;;5105031;28;20100;-53
2022/08/22 14:09:31;;;;;;;;;;;26.40;93.30;;;;;;5105146;28;19904;-55
2022/08/22 14:12:21;;;;;;;;;;;26.40;93.30;;;;;;5104713;28;19918;-55
2022/08/22 14:14:48;;;;;;;;;;;26.40;93.30;;;;;;5094500;28;19914;-53
2022/08/22 14:17:18;;;;;;;;;;;26.40;93.30;;;;;;5104036;28;20202;-54
2022/08/22 14:19:49;;;;;;;;;;;26.40;93.40;;;;;;5105155;28;20184;-58
2022/08/22 14:22:20;;;;;;;;;;;26.30;93.40;;;;;;5104903;28;19912;-57
2022/08/22 14:25:13;;;;;;;;;;;26.30;93.40;;;;;;5104972;28;19954;-51
2022/08/22 14:27:43;;;;;;;;;;;26.30;93.40;;;;;;5101190;28;19912;-52
2022/08/22 14:30:12;;;;;;;;;;;26.30;93.50;;;;;;5105093;28;20233;-57
2022/08/22 14:32:59;;;;;;;;;;;26.30;93.40;;;;;;5104763;28;19912;-59
2022/08/22 14:35:39;;;;;;;;;;;26.30;93.20;;;;;;5105531;28;19908;-53
2022/08/22 14:38:17;;;;;;;;;;;26.30;93.30;;;;;;5104322;28;19912;-54
2022/08/22 14:40:45;;;;;;;;;;;26.30;93.10;;;;;;5105385;28;19947;-57
2022/08/22 14:43:29;;;;;;;;;;;26.30;93.20;;;;;;5104640;28;19951;-55
2022/08/22 14:45:57;;;;;;;;;;;26.30;93.10;;;;;;5104938;28;20022;-55
2022/08/22 14:48:29;;;;;;;;;;;26.30;93.10;;;;;;5102775;28;19939;-61
2022/08/22 14:50:57;;;;;;;;;;;26.30;93.10;;;;;;5103220;28;19980;-54
2022/08/22 14:53:31;;;;;;;;;;;26.30;93.20;;;;;;5102859;28;19919;-56
2022/08/22 14:56:06;;;;;;;;;;;26.30;93.10;;;;;;5103237;28;19904;-54
2022/08/22 14:58:44;;;;;;;;;;;26.30;93.10;;;;;;5104161;28;19919;-56
2022/08/22 15:01:13;;;;;;;;;;;26.30;93.10;;;;;;5105476;28;19905;-53